createdAt,value
2022-08-21T00:00:51.946Z,15.35
2022-08-21T00:03:19.028Z,15.20
2022-08-21T00:05:50.853Z,15.20
2022-08-21T00:08:19.420Z,15.19
2022-08-21T00:10:48.511Z,14.99
2022-08-21T00:13:18.692Z,15.06
2022-08-21T00:15:46.787Z,14.94
2022-08-21T00:18:14.776Z,14.92
2022-08-21T00:20:42.978Z,14.99
2022-08-21T00:23:10.581Z,15.01
2022-08-21T00:25:37.978Z,14.77
2022-08-21T00:28:05.530Z,15.03
2022-08-21T00:30:33.121Z,14.89
2022-08-21T00:33:00.779Z,14.75
2022-08-21T00:35:31.419Z,14.79
2022-08-21T00:37:59.002Z,14.72
2022-08-21T00:40:31.420Z,14.73
2022-08-21T00:42:58.763Z,14.76
2022-08-21T00:45:26.300Z,14.70
2022-08-21T00:47:55.952Z,14.38
2022-08-21T00:50:26.865Z,14.61
2022-08-21T00:52:53.982Z,14.57
2022-08-21T00:55:23.475Z,14.68
2022-08-21T00:57:55.076Z,14.69
2022-08-21T01:00:29.503Z,14.69
2022-08-21T01:02:58.743Z,14.36
2022-08-21T01:05:27.763Z,14.54
2022-08-21T01:07:57.958Z,14.51
2022-08-21T01:10:31.519Z,14.44
2022-08-21T01:12:59.332Z,14.38
2022-08-21T01:15:32.818Z,14.39
2022-08-21T01:18:01.343Z,14.40
2022-08-21T01:20:32.792Z,14.30
2022-08-21T01:23:02.576Z,14.22
2022-08-21T01:25:30.309Z,13.98
2022-08-21T01:28:01.180Z,14.08
2022-08-21T01:30:29.530Z,14.18
2022-08-21T01:32:57.172Z,14.16
2022-08-21T01:35:24.370Z,14.05
2022-08-21T01:37:51.415Z,13.90
2022-08-21T01:40:18.951Z,14.18
2022-08-21T01:42:46.876Z,14.04
2022-08-21T01:45:15.045Z,13.99
2022-08-21T01:47:42.693Z,13.89
2022-08-21T01:50:13.335Z,13.78
2022-08-21T01:52:40.517Z,13.77
2022-08-21T01:55:09.356Z,13.86
2022-08-21T01:57:36.550Z,13.86
2022-08-21T02:00:09.450Z,13.48
2022-08-21T02:02:40.894Z,13.65
2022-08-21T02:05:10.040Z,13.52
2022-08-21T02:07:49.267Z,13.66
2022-08-21T02:10:23.092Z,13.77
2022-08-21T02:12:50.658Z,13.67
2022-08-21T02:15:18.292Z,13.71
2022-08-21T02:17:52.479Z,13.57
2022-08-21T02:20:24.093Z,13.61
2022-08-21T02:22:51.743Z,13.49
2022-08-21T02:25:21.046Z,13.51
2022-08-21T02:27:48.772Z,13.49
2022-08-21T02:30:19.429Z,13.38
2022-08-21T02:32:46.574Z,13.39
2022-08-21T02:35:14.367Z,13.42
2022-08-21T02:37:50.942Z,13.49
2022-08-21T02:40:20.595Z,13.39
2022-08-21T02:42:47.806Z,13.37
2022-08-21T02:45:18.177Z,13.33
2022-08-21T02:47:57.614Z,13.35
2022-08-21T02:50:28.295Z,13.36
2022-08-21T02:52:55.917Z,13.29
2022-08-21T02:55:24.623Z,13.30
2022-08-21T02:57:51.672Z,13.22
2022-08-21T03:00:19.143Z,13.00
2022-08-21T03:02:47.533Z,13.23
2022-08-21T03:05:15.987Z,12.93
2022-08-21T03:07:44.945Z,12.96
2022-08-21T03:10:12.406Z,13.07
2022-08-21T03:12:39.449Z,13.09
2022-08-21T03:15:10.403Z,12.92
2022-08-21T03:17:38.258Z,12.87
2022-08-21T03:20:07.501Z,12.90
2022-08-21T03:22:34.792Z,12.90
2022-08-21T03:25:02.027Z,12.61
2022-08-21T03:27:34.957Z,12.70
2022-08-21T03:30:05.557Z,12.78
2022-08-21T03:32:33.210Z,12.82
2022-08-21T03:35:01.217Z,12.83
2022-08-21T03:37:28.530Z,12.77
2022-08-21T03:39:55.985Z,12.87
2022-08-21T03:42:23.692Z,12.86
2022-08-21T03:44:51.126Z,12.76
2022-08-21T03:47:18.397Z,12.87
2022-08-21T03:49:45.431Z,12.87
2022-08-21T03:52:12.612Z,12.76
2022-08-21T03:54:41.868Z,12.82
2022-08-21T03:57:10.288Z,12.33
2022-08-21T03:59:38.304Z,12.80
2022-08-21T04:02:07.221Z,12.20
2022-08-21T04:04:34.686Z,12.61
2022-08-21T04:07:02.255Z,12.73
2022-08-21T04:09:29.611Z,12.65
2022-08-21T04:11:57.542Z,12.57
2022-08-21T04:14:24.570Z,12.64
2022-08-21T04:16:51.595Z,12.57
2022-08-21T04:19:18.615Z,12.22
2022-08-21T04:21:45.771Z,12.52
2022-08-21T04:24:13.240Z,12.43
2022-08-21T04:26:40.502Z,12.36
2022-08-21T04:29:07.551Z,12.40
2022-08-21T04:31:38.201Z,12.42
2022-08-21T04:34:06.020Z,12.38
2022-08-21T04:36:34.632Z,12.05
2022-08-21T04:39:02.633Z,12.48
2022-08-21T04:41:31.010Z,12.11
2022-08-21T04:43:58.807Z,12.48
2022-08-21T04:46:26.071Z,12.58
2022-08-21T04:48:53.143Z,12.55
2022-08-21T04:51:26.620Z,12.49
2022-08-21T04:54:01.857Z,12.54
2022-08-21T04:56:33.795Z,12.69
2022-08-21T04:59:04.972Z,12.80
2022-08-21T05:01:36.685Z,12.75
2022-08-21T05:04:06.682Z,12.84
2022-08-21T05:06:37.930Z,12.86
2022-08-21T05:09:05.496Z,12.85
2022-08-21T05:11:33.822Z,12.92
2022-08-21T05:14:00.879Z,12.94
2022-08-21T05:16:30.151Z,13.03
2022-08-21T05:19:08.065Z,13.09
2022-08-21T05:21:38.433Z,13.14
2022-08-21T05:24:05.529Z,13.14
2022-08-21T05:26:32.609Z,13.04
2022-08-21T05:28:59.865Z,13.23
2022-08-21T05:31:27.121Z,13.22
2022-08-21T05:33:54.251Z,13.27
2022-08-21T05:36:23.560Z,12.94
2022-08-21T05:38:50.644Z,13.31
2022-08-21T05:41:17.751Z,13.26
2022-08-21T05:43:44.793Z,13.31
2022-08-21T05:46:12.363Z,13.32
2022-08-21T05:48:39.437Z,13.31
2022-08-21T05:51:14.659Z,13.35
2022-08-21T05:53:43.077Z,13.35
2022-08-21T05:56:11.504Z,13.44
2022-08-21T05:58:39.066Z,13.50
2022-08-21T06:01:06.398Z,13.41
2022-08-21T06:03:36.209Z,13.49
2022-08-21T06:06:03.883Z,13.48
2022-08-21T06:08:31.198Z,13.54
2022-08-21T06:11:01.276Z,13.65
2022-08-21T06:13:29.839Z,13.75
2022-08-21T06:16:16.123Z,13.87
2022-08-21T06:18:45.453Z,14.06
2022-08-21T06:21:14.298Z,14.15
2022-08-21T06:23:42.114Z,14.28
2022-08-21T06:26:10.988Z,14.37
2022-08-21T06:28:38.193Z,14.45
2022-08-21T06:31:21.361Z,14.42
2022-08-21T06:33:49.104Z,14.65
2022-08-21T06:36:16.270Z,14.85
2022-08-21T06:38:47.217Z,15.00
2022-08-21T06:41:19.384Z,15.07
2022-08-21T06:43:55.463Z,15.18
2022-08-21T06:46:27.221Z,15.44
2022-08-21T06:48:54.912Z,15.54
2022-08-21T06:51:23.418Z,15.56
2022-08-21T06:53:50.501Z,15.76
2022-08-21T06:56:17.910Z,15.75
2022-08-21T06:58:45.147Z,15.89
2022-08-21T07:01:12.602Z,16.03
2022-08-21T07:03:42.543Z,16.11
2022-08-21T07:06:11.388Z,16.32
2022-08-21T07:08:38.820Z,16.55
2022-08-21T07:11:18.774Z,16.52
2022-08-21T07:13:46.138Z,16.88
2022-08-21T07:16:13.593Z,17.01
2022-08-21T07:18:40.871Z,17.08
2022-08-21T07:21:09.426Z,17.32
2022-08-21T07:23:42.966Z,17.54
2022-08-21T07:26:12.026Z,17.83
2022-08-21T07:28:39.333Z,17.86
2022-08-21T07:31:06.748Z,17.76
2022-08-21T07:33:35.148Z,18.28
2022-08-21T07:36:02.653Z,18.24
2022-08-21T07:38:29.669Z,18.25
2022-08-21T07:40:59.875Z,18.35
2022-08-21T07:43:27.331Z,18.87
2022-08-21T07:45:55.311Z,18.85
2022-08-21T07:48:23.211Z,19.01
2022-08-21T07:50:51.940Z,19.15
2022-08-21T07:53:19.086Z,19.25
2022-08-21T07:55:46.201Z,19.40
2022-08-21T07:58:13.619Z,19.20
2022-08-21T08:00:41.378Z,19.15
2022-08-21T08:03:08.578Z,19.36
2022-08-21T08:05:40.775Z,19.54
2022-08-21T08:08:08.356Z,19.50
2022-08-21T08:10:38.989Z,19.41
2022-08-21T08:13:06.130Z,19.41
2022-08-21T08:15:38.209Z,19.86
2022-08-21T08:18:05.426Z,19.84
2022-08-21T08:20:32.492Z,19.93
2022-08-21T08:23:00.246Z,19.67
2022-08-21T08:25:27.917Z,20.13
2022-08-21T08:28:16.388Z,20.25
2022-08-21T08:30:47.757Z,20.41
2022-08-21T08:33:15.566Z,20.40
2022-08-21T08:35:46.719Z,20.85
2022-08-21T08:38:17.825Z,21.02
2022-08-21T08:41:18.176Z,21.16
2022-08-21T08:44:02.716Z,21.20
2022-08-21T08:46:39.012Z,21.34
2022-08-21T08:49:12.412Z,21.55
2022-08-21T08:51:52.986Z,21.43
2022-08-21T08:54:45.874Z,21.26
2022-08-21T08:57:20.142Z,21.91
2022-08-21T08:59:51.437Z,22.16
2022-08-21T09:02:21.870Z,22.00
2022-08-21T09:04:51.014Z,22.22
2022-08-21T09:07:47.978Z,21.99
2022-08-21T09:10:31.126Z,22.44
2022-08-21T09:13:14.555Z,22.58
2022-08-21T09:16:06.380Z,22.40
2022-08-21T09:19:02.779Z,22.45
2022-08-21T09:21:43.185Z,22.24
2022-08-21T09:24:32.485Z,22.39
2022-08-21T09:27:15.126Z,22.23
2022-08-21T09:29:45.855Z,22.13
2022-08-21T09:32:19.230Z,22.12
2022-08-21T09:35:20.894Z,22.27
2022-08-21T09:38:06.073Z,22.39
2022-08-21T09:40:44.886Z,22.76
2022-08-21T09:43:11.859Z,22.94
2022-08-21T09:45:40.661Z,23.06
2022-08-21T09:48:12.530Z,22.88
2022-08-21T09:50:40.826Z,23.03
2022-08-21T09:53:18.535Z,23.13
2022-08-21T09:56:06.983Z,23.10
2022-08-21T09:58:38.158Z,22.87
2022-08-21T10:01:07.221Z,23.05
2022-08-21T10:03:34.382Z,22.78
2022-08-21T10:06:10.214Z,22.89
2022-08-21T10:08:40.279Z,23.04
2022-08-21T10:11:11.707Z,23.07
2022-08-21T10:14:02.690Z,22.85
2022-08-21T10:16:35.928Z,23.28
2022-08-21T10:19:40.362Z,23.46
2022-08-21T10:22:32.679Z,23.69
2022-08-21T10:25:13.301Z,23.43
2022-08-21T10:28:02.524Z,23.78
2022-08-21T10:31:07.194Z,23.67
2022-08-21T10:33:48.596Z,23.91
2022-08-21T10:36:34.824Z,23.66
2022-08-21T10:39:26.383Z,23.43
2022-08-21T10:41:53.882Z,23.13
2022-08-21T10:44:40.022Z,23.11
2022-08-21T10:47:09.911Z,23.31
2022-08-21T10:49:51.307Z,23.45
2022-08-21T10:52:55.347Z,23.54
2022-08-21T10:55:27.667Z,23.68
2022-08-21T10:58:03.652Z,23.88
2022-08-21T11:00:39.720Z,23.97
2022-08-21T11:03:29.821Z,24.06
2022-08-21T11:06:20.097Z,24.10
2022-08-21T11:08:58.295Z,24.22
2022-08-21T11:11:35.779Z,24.20
2022-08-21T11:14:33.890Z,24.39
2022-08-21T11:17:12.143Z,24.58
2022-08-21T11:20:19.257Z,24.75
2022-08-21T11:23:03.764Z,24.66
2022-08-21T11:25:37.824Z,24.36
2022-08-21T11:28:30.338Z,24.59
2022-08-21T11:31:09.755Z,24.89
2022-08-21T11:33:42.926Z,25.16
2022-08-21T11:36:12.838Z,25.29
2022-08-21T11:39:10.675Z,24.98
2022-08-21T11:41:46.767Z,25.20
2022-08-21T11:44:38.893Z,25.05
2022-08-21T11:47:31.230Z,25.26
2022-08-21T11:50:19.263Z,25.30
2022-08-21T11:53:04.882Z,25.23
2022-08-21T11:55:47.563Z,25.01
2022-08-21T11:58:14.506Z,24.84
2022-08-21T12:00:47.860Z,24.95
2022-08-21T12:03:23.991Z,25.11
2022-08-21T12:06:05.515Z,25.17
2022-08-21T12:08:36.238Z,25.00
2022-08-21T12:11:07.626Z,24.76
2022-08-21T12:13:58.072Z,25.01
2022-08-21T12:16:37.579Z,25.52
2022-08-21T12:19:09.054Z,25.59
2022-08-21T12:21:51.760Z,25.54
2022-08-21T12:24:30.701Z,25.48
2022-08-21T12:27:00.373Z,25.51
2022-08-21T12:29:47.679Z,25.44
2022-08-21T12:32:14.645Z,25.19
2022-08-21T12:34:49.524Z,24.98
2022-08-21T12:37:26.873Z,25.02
2022-08-21T12:39:56.308Z,24.94
2022-08-21T12:42:38.641Z,24.99
2022-08-21T12:45:38.805Z,25.05
2022-08-21T12:48:15.168Z,25.56
2022-08-21T12:50:51.150Z,25.99
2022-08-21T12:53:27.916Z,25.85
2022-08-21T12:56:00.720Z,25.71
2022-08-21T12:58:28.571Z,25.43
2022-08-21T13:01:08.276Z,25.71
2022-08-21T13:03:37.974Z,25.78
2022-08-21T13:06:06.470Z,26.02
2022-08-21T13:08:40.249Z,26.19
2022-08-21T13:11:09.213Z,26.50
2022-08-21T13:13:47.043Z,26.56
2022-08-21T13:16:27.307Z,26.53
2022-08-21T13:18:54.687Z,26.60
2022-08-21T13:21:32.607Z,26.77
2022-08-21T13:24:41.687Z,26.69
2022-08-21T13:27:26.140Z,26.36
2022-08-21T13:30:23.810Z,26.50
2022-08-21T13:32:56.448Z,26.03
2022-08-21T13:35:32.626Z,25.59
2022-08-21T13:38:00.650Z,25.71
2022-08-21T13:40:39.903Z,25.78
2022-08-21T13:43:14.321Z,25.35
2022-08-21T13:45:52.504Z,25.54
2022-08-21T13:48:21.462Z,25.35
2022-08-21T13:50:48.787Z,25.52
2022-08-21T13:53:24.356Z,25.76
2022-08-21T13:55:52.082Z,26.03
2022-08-21T13:58:44.426Z,26.20
2022-08-21T14:01:40.838Z,26.49
2022-08-21T14:04:24.509Z,26.60
2022-08-21T14:06:52.290Z,26.18
2022-08-21T14:09:36.669Z,25.95
2022-08-21T14:12:58.326Z,25.89
2022-08-21T14:15:32.404Z,26.13
2022-08-21T14:18:19.153Z,26.37
2022-08-21T14:20:47.062Z,26.34
2022-08-21T14:23:26.330Z,26.29
2022-08-21T14:25:54.154Z,26.19
2022-08-21T14:28:30.070Z,26.52
2022-08-21T14:30:57.661Z,26.53
2022-08-21T14:33:33.414Z,26.66
2022-08-21T14:36:02.718Z,26.69
2022-08-21T14:38:30.070Z,26.53
2022-08-21T14:41:16.823Z,26.58
2022-08-21T14:43:46.261Z,26.45
2022-08-21T14:46:21.198Z,26.82
2022-08-21T14:48:48.302Z,26.99
2022-08-21T14:51:15.528Z,27.01
2022-08-21T14:53:42.633Z,27.41
2022-08-21T14:56:10.934Z,27.43
2022-08-21T14:58:47.205Z,27.10
2022-08-21T15:01:16.576Z,27.33
2022-08-21T15:03:43.790Z,27.57
2022-08-21T15:06:11.526Z,27.69
2022-08-21T15:08:39.023Z,27.32
2022-08-21T15:11:12.484Z,27.21
2022-08-21T15:13:41.861Z,26.82
2022-08-21T15:16:11.998Z,27.44
2022-08-21T15:18:39.891Z,27.61
2022-08-21T15:21:07.079Z,26.95
2022-08-21T15:23:34.102Z,27.43
2022-08-21T15:26:01.293Z,27.65
2022-08-21T15:28:31.802Z,28.10
2022-08-21T15:31:01.413Z,27.89
2022-08-21T15:33:28.816Z,27.91
2022-08-21T15:35:55.970Z,26.93
2022-08-21T15:38:23.144Z,26.87
2022-08-21T15:40:52.371Z,26.92
2022-08-21T15:43:47.250Z,27.39
2022-08-21T15:46:16.411Z,28.05
2022-08-21T15:48:44.192Z,28.32
2022-08-21T15:51:12.138Z,28.60
2022-08-21T15:53:41.055Z,28.87
2022-08-21T15:56:23.506Z,28.96
2022-08-21T15:58:53.339Z,29.02
2022-08-21T16:01:22.324Z,29.20
2022-08-21T16:03:52.730Z,28.28
2022-08-21T16:06:38.510Z,28.49
2022-08-21T16:09:06.826Z,28.64
2022-08-21T16:11:33.929Z,28.14
2022-08-21T16:14:00.982Z,27.98
2022-08-21T16:16:29.666Z,27.52
2022-08-21T16:18:58.826Z,26.94
2022-08-21T16:21:25.929Z,26.58
2022-08-21T16:23:53.071Z,26.24
2022-08-21T16:26:21.379Z,26.45
2022-08-21T16:28:51.496Z,26.31
2022-08-21T16:31:19.762Z,26.33
2022-08-21T16:33:51.374Z,26.16
2022-08-21T16:36:26.198Z,26.25
2022-08-21T16:38:58.037Z,26.32
2022-08-21T16:41:33.163Z,26.28
2022-08-21T16:44:01.351Z,26.19
2022-08-21T16:46:32.865Z,26.33
2022-08-21T16:48:59.919Z,26.24
2022-08-21T16:51:26.991Z,26.26
2022-08-21T16:53:54.281Z,26.27
2022-08-21T16:56:21.333Z,26.45
2022-08-21T16:58:50.095Z,26.05
2022-08-21T17:01:20.931Z,26.07
2022-08-21T17:03:51.122Z,26.14
2022-08-21T17:06:18.900Z,25.84
2022-08-21T17:08:46.570Z,25.87
2022-08-21T17:11:37.069Z,25.85
2022-08-21T17:14:33.439Z,25.64
2022-08-21T17:17:02.072Z,25.54
2022-08-21T17:19:29.198Z,25.43
2022-08-21T17:21:56.286Z,25.24
2022-08-21T17:24:23.342Z,25.15
2022-08-21T17:26:52.954Z,25.07
2022-08-21T17:29:26.746Z,24.77
2022-08-21T17:31:54.043Z,24.92
2022-08-21T17:34:21.878Z,24.66
2022-08-21T17:36:48.979Z,24.59
2022-08-21T17:39:22.414Z,24.41
2022-08-21T17:41:57.804Z,24.36
2022-08-21T17:44:25.421Z,24.22
2022-08-21T17:46:52.447Z,24.32
2022-08-21T17:49:19.563Z,24.25
2022-08-21T17:51:46.679Z,24.25
2022-08-21T17:54:13.823Z,23.90
2022-08-21T17:56:42.194Z,23.98
2022-08-21T17:59:10.482Z,23.91
2022-08-21T18:01:42.552Z,23.82
2022-08-21T18:04:11.152Z,23.71
2022-08-21T18:06:38.815Z,23.72
2022-08-21T18:09:08.202Z,23.67
2022-08-21T18:11:37.655Z,23.41
2022-08-21T18:14:07.771Z,23.41
2022-08-21T18:16:37.479Z,23.37
2022-08-21T18:19:09.805Z,23.38
2022-08-21T18:21:36.868Z,23.29
2022-08-21T18:24:04.370Z,23.17
2022-08-21T18:26:34.934Z,23.20
2022-08-21T18:29:04.589Z,22.99
2022-08-21T18:31:35.056Z,23.05
2022-08-21T18:34:07.915Z,22.76
2022-08-21T18:36:35.037Z,22.87
2022-08-21T18:39:25.778Z,22.85
2022-08-21T18:41:50.298Z,22.82
2022-08-21T18:44:20.502Z,22.71
2022-08-21T18:47:20.625Z,22.68
2022-08-21T18:49:47.950Z,22.35
2022-08-21T18:52:17.816Z,22.50
2022-08-21T18:54:49.581Z,22.50
2022-08-21T18:57:18.357Z,22.41
2022-08-21T18:59:45.420Z,22.37
2022-08-21T19:02:12.537Z,22.23
2022-08-21T19:04:44.989Z,22.20
2022-08-21T19:07:14.154Z,22.07
2022-08-21T19:09:43.112Z,22.15
2022-08-21T19:12:16.909Z,22.15
2022-08-21T19:14:44.249Z,22.14
2022-08-21T19:17:13.498Z,22.15
2022-08-21T19:19:41.100Z,22.02
2022-08-21T19:22:10.791Z,22.06
2022-08-21T19:24:39.544Z,22.00
2022-08-21T19:27:17.939Z,22.05
2022-08-21T19:29:45.277Z,22.08
2022-08-21T19:32:12.676Z,21.97
2022-08-21T19:34:41.269Z,21.92
2022-08-21T19:37:12.146Z,21.88
2022-08-21T19:39:43.589Z,21.86
2022-08-21T19:42:28.759Z,21.82
2022-08-21T19:44:58.134Z,21.85
2022-08-21T19:50:18.058Z,21.44
2022-08-21T19:53:00.704Z,21.47
2022-08-21T19:55:28.011Z,21.38
2022-08-21T19:57:55.869Z,21.52
2022-08-21T20:00:26.806Z,21.17
2022-08-21T20:02:54.014Z,21.21
2022-08-21T20:05:21.349Z,21.05
2022-08-21T20:07:48.629Z,21.26
2022-08-21T20:10:17.489Z,21.18
2022-08-21T20:12:48.980Z,21.08
2022-08-21T20:15:20.069Z,21.01
2022-08-21T20:17:47.366Z,20.78
2022-08-21T20:20:14.520Z,20.36
2022-08-21T20:22:42.100Z,20.46
2022-08-21T20:25:09.388Z,20.38
2022-08-21T20:27:40.467Z,20.25
2022-08-21T20:30:09.790Z,20.04
2022-08-21T20:32:37.025Z,20.05
2022-08-21T20:35:05.713Z,19.95
2022-08-21T20:37:39.513Z,20.05
2022-08-21T20:40:12.173Z,19.95
2022-08-21T20:45:31.955Z,19.88
2022-08-21T20:48:27.998Z,19.87
2022-08-21T20:51:17.692Z,19.86
2022-08-21T20:54:12.686Z,19.92
2022-08-21T20:56:48.734Z,19.71
2022-08-21T20:59:18.493Z,19.52
2022-08-21T21:01:48.810Z,19.33
2022-08-21T21:04:34.968Z,19.45
2022-08-21T21:07:06.565Z,19.35
2022-08-21T21:09:43.474Z,19.05
2022-08-21T21:12:28.175Z,19.26
2022-08-21T21:15:01.112Z,19.26
2022-08-21T21:17:38.010Z,19.16
2022-08-21T21:20:33.251Z,19.14
2022-08-21T21:23:40.218Z,18.94
2022-08-21T21:26:16.309Z,18.54
2022-08-21T21:29:01.519Z,18.56
2022-08-21T21:31:31.010Z,18.72
2022-08-21T21:33:59.809Z,18.63
2022-08-21T21:36:35.056Z,18.60
2022-08-21T21:39:22.860Z,18.49
2022-08-21T21:41:54.372Z,18.56
2022-08-21T21:44:40.041Z,18.56
2022-08-21T21:47:45.651Z,18.44
2022-08-21T21:50:25.401Z,18.47
2022-08-21T21:53:14.265Z,18.49
2022-08-21T21:55:59.417Z,18.45
2022-08-21T21:58:54.643Z,18.35
2022-08-21T22:01:37.877Z,18.19
2022-08-21T22:04:12.926Z,17.97
2022-08-21T22:06:55.139Z,17.96
2022-08-21T22:09:38.109Z,18.03
2022-08-21T22:12:49.826Z,18.02
2022-08-21T22:15:31.925Z,18.07
2022-08-21T22:18:08.686Z,18.03
2022-08-21T22:20:45.601Z,17.94
2022-08-21T22:23:17.940Z,17.92
2022-08-21T22:25:49.285Z,17.54
2022-08-21T22:28:25.492Z,17.98
2022-08-21T22:30:56.146Z,17.76
2022-08-21T22:33:27.939Z,17.91
2022-08-21T22:35:57.201Z,17.80
2022-08-21T22:38:36.856Z,17.70
2022-08-21T22:41:19.127Z,17.39
2022-08-21T22:43:55.322Z,17.55
2022-08-21T22:46:28.681Z,17.67
2022-08-21T22:49:25.182Z,17.51
2022-08-21T22:51:57.069Z,17.45
2022-08-21T22:54:34.932Z,17.17
2022-08-21T22:57:06.561Z,17.33
2022-08-21T22:59:41.469Z,17.36
2022-08-21T23:02:30.326Z,17.56
2022-08-21T23:05:00.612Z,17.54
2022-08-21T23:07:43.073Z,17.35
2022-08-21T23:10:30.332Z,17.19
2022-08-21T23:13:09.117Z,17.24
2022-08-21T23:15:58.686Z,17.18
2022-08-21T23:18:50.347Z,17.14
2022-08-21T23:21:20.749Z,17.10
2022-08-21T23:24:21.731Z,16.92
2022-08-21T23:27:21.133Z,17.05
2022-08-21T23:30:05.440Z,16.78
2022-08-21T23:33:00.407Z,16.79
2022-08-21T23:36:06.262Z,16.71
2022-08-21T23:38:45.170Z,16.66
2022-08-21T23:41:37.192Z,16.58
2022-08-21T23:44:25.131Z,16.60
2022-08-21T23:47:29.941Z,16.60
2022-08-21T23:50:25.701Z,16.57
2022-08-21T23:53:10.975Z,16.66
2022-08-21T23:56:07.932Z,16.44
2022-08-21T23:59:01.737Z,16.56
